Time;durP1;ratioP1;P1;durP2;ratioP2;P2;SDS_P1;SDS_P2;PMS_P1;PMS_P2;Temp;Humidity;BMP_temperature;BMP_pressure;BME280_temperature;BME280_humidity;BME280_pressure;Samples;Min_cycle;Max_cycle;Signal;HPM_P1;HPM_P2
2022/04/11 00:00:27;;;;;;;4.07;2.50;;;4.40;99.90;;;;;;6702612;88;20215;-77
2022/04/11 00:10:27;;;;;;;5.15;2.50;;;4.60;99.90;;;;;;6707178;88;20186;-79
2022/04/11 00:20:29;;;;;;;4.10;2.57;;;4.70;99.90;;;;;;6707665;88;20315;-77
2022/04/11 00:30:29;;;;;;;5.75;2.80;;;4.70;99.90;;;;;;6707240;88;20535;-80
2022/04/11 00:40:30;;;;;;;6.03;2.90;;;4.50;99.90;;;;;;6706876;88;20710;-77
2022/04/11 00:50:31;;;;;;;4.72;2.83;;;4.60;99.90;;;;;;6706607;88;20283;-77
2022/04/11 01:00:31;;;;;;;6.40;2.72;;;4.50;99.90;;;;;;6706380;88;20274;-77
2022/04/11 01:10:32;;;;;;;4.53;2.50;;;4.50;99.90;;;;;;6706614;88;20701;-77
2022/04/11 01:20:33;;;;;;;6.03;2.40;;;4.50;99.90;;;;;;6708117;88;20612;-78
2022/04/11 01:30:33;;;;;;;5.85;2.37;;;4.60;99.90;;;;;;6708188;88;20219;-76
2022/04/11 01:40:34;;;;;;;4.62;2.47;;;4.60;99.90;;;;;;6708958;88;20663;-78
2022/04/11 01:50:34;;;;;;;3.95;2.28;;;4.80;99.90;;;;;;6708945;88;20585;-78
2022/04/11 02:00:35;;;;;;;4.65;2.20;;;4.70;99.90;;;;;;6708840;88;20174;-78
2022/04/11 02:10:38;;;;;;;6.68;2.58;;;4.90;99.90;;;;;;6709944;88;20227;-77
2022/04/11 02:20:39;;;;;;;5.10;2.70;;;5.10;99.90;;;;;;6708839;88;20173;-76
2022/04/11 02:30:39;;;;;;;4.80;2.20;;;5.10;99.90;;;;;;6701268;88;20198;-79
2022/04/11 02:40:40;;;;;;;7.50;2.47;;;5.00;99.90;;;;;;6690972;88;20183;-79
2022/04/11 02:50:41;;;;;;;3.95;2.00;;;5.30;99.90;;;;;;6692757;88;20204;-80
2022/04/11 03:00:42;;;;;;;4.03;2.10;;;5.30;99.90;;;;;;6688328;88;20204;-78
2022/04/11 03:10:42;;;;;;;5.00;2.08;;;5.30;99.90;;;;;;6692437;88;20715;-78
2022/04/11 03:20:43;;;;;;;5.82;2.15;;;5.40;99.90;;;;;;6692194;88;20294;-79
2022/04/11 03:30:44;;;;;;;5.57;2.22;;;5.40;99.90;;;;;;6698874;88;20357;-80
2022/04/11 03:40:44;;;;;;;3.72;1.90;;;5.40;99.90;;;;;;6708567;88;20205;-77
2022/04/11 03:50:45;;;;;;;5.57;2.10;;;5.40;99.90;;;;;;6708833;88;20679;-77
2022/04/11 04:00:45;;;;;;;5.33;2.13;;;5.40;99.90;;;;;;6708594;88;20186;-75
2022/04/11 04:10:46;;;;;;;4.20;1.98;;;5.40;99.90;;;;;;6705631;88;20663;-75
2022/04/11 04:20:47;;;;;;;6.53;2.25;;;5.50;99.90;;;;;;6708164;88;20200;-78
2022/04/11 04:30:47;;;;;;;6.00;2.10;;;5.50;99.90;;;;;;6707782;88;20215;-77
2022/04/11 04:40:48;;;;;;;3.83;2.03;;;5.40;99.90;;;;;;6707867;88;20214;-77
2022/04/11 04:50:48;;;;;;;6.57;2.50;;;5.30;99.90;;;;;;6709386;88;20213;-78
2022/04/11 05:00:49;;;;;;;4.80;2.50;;;5.00;99.90;;;;;;6711256;88;20536;-77
2022/04/11 05:10:49;;;;;;;7.32;3.00;;;5.10;99.90;;;;;;6711025;88;20186;-77
2022/04/11 05:20:51;;;;;;;6.28;2.50;;;5.00;99.90;;;;;;6706631;88;20193;-76
2022/04/11 05:30:51;;;;;;;5.65;2.60;;;5.00;99.90;;;;;;6711754;88;20183;-76
2022/04/11 05:40:52;;;;;;;5.60;2.58;;;4.80;99.90;;;;;;6710131;88;21066;-77
2022/04/11 05:50:52;;;;;;;5.65;2.42;;;4.90;99.90;;;;;;6710499;88;21027;-78
2022/04/11 06:00:53;;;;;;;4.70;2.47;;;5.10;99.90;;;;;;6715357;88;20557;-77
2022/04/11 06:10:53;;;;;;;5.12;2.20;;;5.30;99.90;;;;;;6721319;88;20194;-78
2022/04/11 06:20:54;;;;;;;5.43;2.37;;;5.60;99.90;;;;;;6712378;88;20370;-77
2022/04/11 06:30:54;;;;;;;5.20;2.20;;;6.10;99.90;;;;;;6716629;88;20618;-78
2022/04/11 06:40:56;;;;;;;6.75;2.60;;;6.40;99.90;;;;;;6713390;88;20330;-78
2022/04/11 06:50:57;;;;;;;5.75;2.50;;;6.80;99.90;;;;;;6709445;88;20200;-78
2022/04/11 07:00:57;;;;;;;6.03;2.10;;;7.30;99.90;;;;;;6713933;88;20191;-78
2022/04/11 07:10:59;;;;;;;5.85;2.08;;;7.70;99.90;;;;;;6726701;88;20197;-78
2022/04/11 07:21:00;;;;;;;5.32;2.25;;;8.00;99.90;;;;;;6727535;88;20185;-77
2022/04/11 07:31:00;;;;;;;5.00;2.65;;;8.20;99.90;;;;;;6722853;88;20207;-77
2022/04/11 07:41:01;;;;;;;4.90;2.10;;;8.70;99.90;;;;;;6740458;88;20196;-78
2022/04/11 08:01:05;;;;;;;6.12;2.30;;;9.50;99.90;;;;;;6753878;88;20181;-78
2022/04/11 08:11:05;;;;;;;5.70;2.85;;;9.80;99.90;;;;;;6751310;87;20818;-78
2022/04/11 08:21:06;;;;;;;4.70;2.42;;;10.00;99.90;;;;;;6764869;87;20201;-78
2022/04/11 08:31:07;;;;;;;6.07;2.80;;;10.40;99.90;;;;;;6762282;87;20214;-79
2022/04/11 08:41:15;;;;;;;7.37;2.50;;;10.40;99.40;;;;;;6748908;88;20183;-79
2022/04/11 08:51:15;;;;;;;5.25;2.20;;;11.00;98.60;;;;;;6736912;88;20225;-79
2022/04/11 09:01:17;;;;;;;5.65;2.10;;;10.80;97.30;;;;;;6733531;88;20982;-79
2022/04/11 09:11:29;;;;;;;5.18;1.98;;;11.40;96.40;;;;;;6734102;88;20210;-79
2022/04/11 09:21:43;;;;;;;5.40;1.90;;;11.40;95.40;;;;;;6738620;88;20188;-80
2022/04/11 09:31:45;;;;;;;4.40;1.60;;;11.90;94.10;;;;;;6733553;88;20186;-80
2022/04/11 09:41:46;;;;;;;5.35;1.98;;;12.00;92.40;;;;;;6738788;88;20682;-80
2022/04/11 09:52:13;;;;;;;4.47;1.58;;;12.70;91.30;;;;;;6736382;88;20213;-78
2022/04/11 10:02:17;;;;;;;4.82;2.05;;;13.10;90.80;;;;;;6736632;88;20191;-78
2022/04/11 10:12:18;;;;;;;4.35;1.58;;;13.10;87.30;;;;;;6738471;88;20210;-78
2022/04/11 10:22:27;;;;;;;4.62;1.70;;;13.30;86.90;;;;;;6741631;88;20197;-79
2022/04/11 10:32:29;;;;;;;4.03;1.80;;;13.70;86.00;;;;;;6738658;88;20196;-79
2022/04/11 10:42:29;;;;;;;4.22;1.80;;;14.40;84.60;;;;;;6739820;88;20263;-80
2022/04/11 10:52:35;;;;;;;4.55;1.70;;;14.20;83.60;;;;;;6733606;88;20227;-79
2022/04/11 11:02:48;;;;;;;3.00;1.70;;;15.10;82.50;;;;;;6744324;88;20198;-79
2022/04/11 11:12:48;;;;;;;2.92;1.60;;;15.40;80.30;;;;;;6757780;88;20156;-80
2022/04/11 11:23:17;;;;;;;3.03;1.73;;;15.40;79.70;;;;;;6754513;88;20673;-80
2022/04/11 11:33:18;;;;;;;3.40;1.52;;;15.10;78.80;;;;;;6755714;88;20200;-79
2022/04/11 11:43:20;;;;;;;3.05;1.50;;;15.50;78.30;;;;;;6752840;88;20203;-79
2022/04/11 11:53:22;;;;;;;6.30;1.60;;;15.30;80.60;;;;;;6755326;88;20250;-79
2022/04/11 12:13:42;;;;;;;3.90;1.62;;;16.60;75.40;;;;;;6736636;88;20708;-79
2022/04/11 12:23:45;;;;;;;3.27;1.50;;;16.80;74.30;;;;;;6731464;88;20313;-78
2022/04/11 12:33:49;;;;;;;4.60;1.60;;;17.30;71.20;;;;;;6735075;88;21342;-79
2022/04/11 12:44:03;;;;;;;4.07;1.60;;;17.00;70.30;;;;;;6730427;88;20723;-79
2022/04/11 12:54:04;;;;;;;5.03;1.55;;;17.30;69.30;;;;;;6731352;88;20217;-79
2022/04/11 13:04:05;;;;;;;2.67;1.20;;;16.50;68.90;;;;;;6698699;89;21160;-78
2022/04/11 13:14:06;;;;;;;2.47;1.35;;;17.40;67.90;;;;;;6690694;88;20221;-79
2022/04/11 13:24:07;;;;;;;3.65;1.40;;;18.00;67.20;;;;;;6713008;88;20215;-79
2022/04/11 13:34:08;;;;;;;2.80;1.23;;;17.40;65.10;;;;;;6737535;88;20205;-79
2022/04/11 13:44:08;;;;;;;6.15;1.73;;;17.70;66.00;;;;;;6732490;88;20712;-79
2022/04/11 14:04:13;;;;;;;5.65;1.60;;;17.90;66.60;;;;;;6764827;88;20499;-79
2022/04/11 14:14:13;;;;;;;4.40;1.62;;;17.80;64.90;;;;;;6750461;88;20219;-78
2022/04/11 14:24:14;;;;;;;3.05;1.60;;;17.80;64.30;;;;;;6747280;88;20161;-78
2022/04/11 14:34:14;;;;;;;5.12;1.70;;;17.90;64.40;;;;;;6726606;88;20213;-80
2022/04/11 14:44:16;;;;;;;3.37;1.40;;;18.20;63.60;;;;;;6749159;88;20292;-79
2022/04/11 14:54:17;;;;;;;2.55;1.50;;;18.10;63.20;;;;;;6760271;88;20204;-78
2022/04/11 15:04:18;;;;;;;2.62;1.37;;;17.60;63.40;;;;;;6758775;88;20158;-79
2022/04/11 15:14:19;;;;;;;2.92;1.30;;;17.80;63.40;;;;;;6759629;88;20313;-80
2022/04/11 15:24:19;;;;;;;5.35;1.33;;;17.70;63.30;;;;;;6758736;88;20724;-79
2022/04/11 15:34:20;;;;;;;3.50;1.40;;;17.70;62.80;;;;;;6776291;87;20308;-79
2022/04/11 15:44:20;;;;;;;1.92;1.40;;;17.30;63.10;;;;;;6749541;88;20488;-80
2022/04/11 15:54:22;;;;;;;5.10;1.65;;;17.40;63.70;;;;;;6760899;88;20223;-79
2022/04/11 16:04:22;;;;;;;2.80;1.70;;;17.20;64.20;;;;;;6727858;88;20158;-79
2022/04/11 16:14:23;;;;;;;5.47;1.70;;;17.10;64.20;;;;;;6741417;88;20713;-81
2022/04/11 16:24:23;;;;;;;3.37;1.58;;;17.00;65.40;;;;;;6756134;88;20231;-79
2022/04/11 16:34:24;;;;;;;3.15;1.60;;;16.90;64.60;;;;;;6753374;88;20236;-78
2022/04/11 16:44:24;;;;;;;5.72;1.92;;;16.70;65.50;;;;;;6763165;88;20165;-83
2022/04/11 16:54:25;;;;;;;2.70;1.70;;;16.60;66.00;;;;;;6765621;88;20215;-79
2022/04/11 17:04:26;;;;;;;3.75;1.95;;;16.40;66.70;;;;;;6758482;88;20795;-80
2022/04/11 17:14:28;;;;;;;3.90;2.00;;;16.10;66.60;;;;;;6750993;88;20180;-81
2022/04/11 17:24:28;;;;;;;3.87;2.08;;;16.00;67.30;;;;;;6753252;88;20188;-80
2022/04/11 17:34:32;;;;;;;5.30;2.42;;;15.90;67.60;;;;;;6712884;88;20672;-79
2022/04/11 17:44:33;;;;;;;3.62;2.33;;;15.60;68.10;;;;;;6750769;88;20234;-80
2022/04/11 17:54:34;;;;;;;3.95;2.10;;;15.50;69.00;;;;;;6752911;88;20224;-80
2022/04/11 18:04:34;;;;;;;3.47;1.75;;;15.40;69.00;;;;;;6764259;87;20174;-79
2022/04/11 18:14:39;;;;;;;3.42;1.60;;;15.10;69.10;;;;;;6768356;87;20180;-79
2022/04/11 18:24:39;;;;;;;3.87;1.37;;;14.90;68.90;;;;;;6743046;88;20210;-81
2022/04/11 18:34:40;;;;;;;5.18;1.40;;;14.70;69.20;;;;;;6746417;88;20629;-80
2022/04/11 18:44:42;;;;;;;2.87;1.30;;;14.40;70.00;;;;;;6742187;88;20696;-80
2022/04/11 18:54:44;;;;;;;4.37;1.40;;;14.10;70.50;;;;;;6740715;88;20371;-79
2022/04/11 19:04:44;;;;;;;3.05;1.20;;;13.90;71.10;;;;;;6747502;88;20219;-80
2022/04/11 19:14:45;;;;;;;3.05;1.40;;;13.50;72.50;;;;;;6753556;88;20189;-81
2022/04/11 19:24:45;;;;;;;3.67;1.95;;;13.20;73.00;;;;;;6744729;88;20177;-79
2022/04/11 19:34:46;;;;;;;4.57;2.22;;;13.30;73.90;;;;;;6747925;88;20201;-79
2022/04/11 19:44:46;;;;;;;6.97;2.30;;;13.30;74.50;;;;;;6739830;88;20213;-78
2022/04/11 19:54:47;;;;;;;6.35;2.33;;;13.00;75.80;;;;;;6745487;88;20772;-80
2022/04/11 20:04:48;;;;;;;7.57;3.22;;;12.40;77.70;;;;;;6742929;88;20234;-80
2022/04/11 20:14:48;;;;;;;4.80;2.15;;;12.00;78.60;;;;;;6740021;88;20201;-79
2022/04/11 20:24:49;;;;;;;4.82;2.00;;;12.50;77.90;;;;;;6743887;88;20259;-80
2022/04/11 20:34:50;;;;;;;6.30;2.50;;;12.40;78.30;;;;;;6740961;88;20231;-77
2022/04/11 20:44:50;;;;;;;5.83;2.00;;;12.10;79.80;;;;;;6739227;88;20298;-79
2022/04/11 21:05:10;;;;;;;4.90;2.15;;;11.60;82.80;;;;;;6726871;88;20166;-79
2022/04/11 21:15:11;;;;;;;5.72;2.75;;;11.40;83.10;;;;;;6726289;88;20193;-79
2022/04/11 21:25:12;;;;;;;6.32;2.08;;;11.30;83.90;;;;;;6730315;88;20219;-79
2022/04/11 21:35:12;;;;;;;3.78;1.92;;;11.40;83.00;;;;;;6732808;88;20281;-78
2022/04/11 21:45:13;;;;;;;4.18;1.80;;;11.40;83.20;;;;;;6733758;88;20180;-79
2022/04/11 21:55:14;;;;;;;7.07;1.90;;;11.40;83.90;;;;;;6731415;88;20239;-80
2022/04/11 22:05:35;;;;;;;4.43;1.73;;;11.20;84.70;;;;;;6768085;77;20181;-77
2022/04/11 22:25:39;;;;;;;7.30;1.77;;;11.20;86.10;;;;;;6724918;88;20196;-77
2022/04/11 22:35:40;;;;;;;10.65;3.08;;;11.00;86.90;;;;;;6732701;88;20250;-77
2022/04/11 22:55:45;;;;;;;6.75;1.75;;;10.40;90.40;;;;;;6723919;88;20195;-77
2022/04/11 23:15:49;;;;;;;4.85;1.85;;;10.30;91.60;;;;;;6732634;88;20322;-77
2022/04/11 23:25:49;;;;;;;3.90;2.00;;;10.20;92.50;;;;;;6731051;88;20186;-77
2022/04/11 23:35:50;;;;;;;4.45;1.90;;;10.40;92.20;;;;;;6728074;88;20204;-78
2022/04/11 23:45:50;;;;;;;3.92;1.95;;;10.60;92.30;;;;;;6731756;88;20204;-78
2022/04/11 23:55:51;;;;;;;5.10;2.00;;;10.50;92.80;;;;;;6731222;88;20215;-78
